sensor_id;sensor_type;location;lat;lon;timestamp;P1;durP1;ratioP1;P2;durP2;ratioP2
23680;SDS011;62915;50.832;4.462;2024-01-07T00:00:43;15.55;;;11.70;;
23680;SDS011;62915;50.832;4.462;2024-01-07T00:03:10;14.98;;;11.45;;
23680;SDS011;62915;50.832;4.462;2024-01-07T00:05:36;16.13;;;11.68;;
23680;SDS011;62915;50.832;4.462;2024-01-07T00:08:02;17.30;;;12.15;;
23680;SDS011;62915;50.832;4.462;2024-01-07T00:10:29;17.85;;;12.32;;
23680;SDS011;62915;50.832;4.462;2024-01-07T00:12:54;15.88;;;12.57;;
23680;SDS011;62915;50.832;4.462;2024-01-07T00:15:21;18.15;;;12.82;;
23680;SDS011;62915;50.832;4.462;2024-01-07T00:17:52;18.67;;;13.23;;
23680;SDS011;62915;50.832;4.462;2024-01-07T00:20:18;18.73;;;12.55;;
23680;SDS011;62915;50.832;4.462;2024-01-07T00:22:44;17.25;;;12.15;;
23680;SDS011;62915;50.832;4.462;2024-01-07T00:25:10;15.05;;;11.93;;
23680;SDS011;62915;50.832;4.462;2024-01-07T00:27:36;15.95;;;12.52;;
23680;SDS011;62915;50.832;4.462;2024-01-07T00:30:02;16.02;;;12.43;;
23680;SDS011;62915;50.832;4.462;2024-01-07T00:32:28;17.25;;;13.35;;
23680;SDS011;62915;50.832;4.462;2024-01-07T00:34:53;16.42;;;13.32;;
23680;SDS011;62915;50.832;4.462;2024-01-07T00:37:19;17.48;;;12.93;;
23680;SDS011;62915;50.832;4.462;2024-01-07T00:39:45;18.02;;;12.95;;
23680;SDS011;62915;50.832;4.462;2024-01-07T00:42:11;17.50;;;12.93;;
23680;SDS011;62915;50.832;4.462;2024-01-07T00:44:37;19.17;;;13.63;;
23680;SDS011;62915;50.832;4.462;2024-01-07T00:47:03;17.00;;;13.88;;
23680;SDS011;62915;50.832;4.462;2024-01-07T00:49:28;18.42;;;12.57;;
23680;SDS011;62915;50.832;4.462;2024-01-07T00:51:54;17.20;;;13.57;;
23680;SDS011;62915;50.832;4.462;2024-01-07T00:54:20;20.25;;;14.02;;
23680;SDS011;62915;50.832;4.462;2024-01-07T00:56:46;17.02;;;13.20;;
23680;SDS011;62915;50.832;4.462;2024-01-07T00:59:11;17.15;;;13.38;;
23680;SDS011;62915;50.832;4.462;2024-01-07T01:01:37;19.17;;;14.57;;
23680;SDS011;62915;50.832;4.462;2024-01-07T01:04:03;19.88;;;13.43;;
23680;SDS011;62915;50.832;4.462;2024-01-07T01:06:30;18.67;;;13.43;;
23680;SDS011;62915;50.832;4.462;2024-01-07T01:08:56;18.55;;;13.43;;
23680;SDS011;62915;50.832;4.462;2024-01-07T01:11:22;18.13;;;14.10;;
23680;SDS011;62915;50.832;4.462;2024-01-07T01:13:47;17.63;;;12.85;;
23680;SDS011;62915;50.832;4.462;2024-01-07T01:16:15;17.33;;;13.60;;
23680;SDS011;62915;50.832;4.462;2024-01-07T01:18:40;20.20;;;13.70;;
23680;SDS011;62915;50.832;4.462;2024-01-07T01:21:06;19.27;;;13.35;;
23680;SDS011;62915;50.832;4.462;2024-01-07T01:23:33;17.95;;;14.07;;
23680;SDS011;62915;50.832;4.462;2024-01-07T01:25:58;20.48;;;14.95;;
23680;SDS011;62915;50.832;4.462;2024-01-07T01:28:24;19.35;;;14.60;;
23680;SDS011;62915;50.832;4.462;2024-01-07T01:30:50;18.98;;;14.43;;
23680;SDS011;62915;50.832;4.462;2024-01-07T01:33:15;20.73;;;15.20;;
23680;SDS011;62915;50.832;4.462;2024-01-07T01:35:41;20.48;;;16.33;;
23680;SDS011;62915;50.832;4.462;2024-01-07T01:38:07;21.27;;;15.57;;
23680;SDS011;62915;50.832;4.462;2024-01-07T01:40:33;22.60;;;16.05;;
23680;SDS011;62915;50.832;4.462;2024-01-07T01:42:59;21.63;;;15.95;;
23680;SDS011;62915;50.832;4.462;2024-01-07T01:45:25;24.02;;;16.38;;
23680;SDS011;62915;50.832;4.462;2024-01-07T01:47:51;18.85;;;15.30;;
23680;SDS011;62915;50.832;4.462;2024-01-07T01:50:17;20.88;;;15.60;;
23680;SDS011;62915;50.832;4.462;2024-01-07T01:52:44;21.70;;;15.60;;
23680;SDS011;62915;50.832;4.462;2024-01-07T01:55:10;18.92;;;14.95;;
23680;SDS011;62915;50.832;4.462;2024-01-07T01:57:37;20.13;;;15.15;;
23680;SDS011;62915;50.832;4.462;2024-01-07T02:00:06;18.48;;;14.32;;
23680;SDS011;62915;50.832;4.462;2024-01-07T02:02:33;20.08;;;14.90;;
23680;SDS011;62915;50.832;4.462;2024-01-07T02:05:03;19.42;;;14.48;;
23680;SDS011;62915;50.832;4.462;2024-01-07T02:07:29;18.85;;;14.07;;
23680;SDS011;62915;50.832;4.462;2024-01-07T02:09:56;19.75;;;15.35;;
23680;SDS011;62915;50.832;4.462;2024-01-07T02:12:22;16.98;;;12.95;;
23680;SDS011;62915;50.832;4.462;2024-01-07T02:14:47;17.17;;;13.00;;
23680;SDS011;62915;50.832;4.462;2024-01-07T02:17:14;17.63;;;12.68;;
23680;SDS011;62915;50.832;4.462;2024-01-07T02:19:40;16.58;;;12.23;;
23680;SDS011;62915;50.832;4.462;2024-01-07T02:22:06;16.40;;;12.18;;
23680;SDS011;62915;50.832;4.462;2024-01-07T02:24:32;17.45;;;12.68;;
23680;SDS011;62915;50.832;4.462;2024-01-07T02:26:58;17.08;;;12.20;;
23680;SDS011;62915;50.832;4.462;2024-01-07T02:29:27;16.30;;;12.02;;
23680;SDS011;62915;50.832;4.462;2024-01-07T02:31:54;15.48;;;11.75;;
23680;SDS011;62915;50.832;4.462;2024-01-07T02:34:20;16.45;;;12.13;;
23680;SDS011;62915;50.832;4.462;2024-01-07T02:36:45;15.85;;;12.15;;
23680;SDS011;62915;50.832;4.462;2024-01-07T02:39:11;15.40;;;12.27;;
23680;SDS011;62915;50.832;4.462;2024-01-07T02:41:37;17.52;;;13.10;;
23680;SDS011;62915;50.832;4.462;2024-01-07T02:44:03;16.70;;;12.52;;
23680;SDS011;62915;50.832;4.462;2024-01-07T02:46:29;17.30;;;12.57;;
23680;SDS011;62915;50.832;4.462;2024-01-07T02:48:56;16.65;;;12.82;;
23680;SDS011;62915;50.832;4.462;2024-01-07T02:51:21;18.38;;;13.30;;
23680;SDS011;62915;50.832;4.462;2024-01-07T02:53:47;18.27;;;13.68;;
23680;SDS011;62915;50.832;4.462;2024-01-07T02:56:13;18.27;;;13.25;;
23680;SDS011;62915;50.832;4.462;2024-01-07T02:58:39;18.10;;;13.45;;
23680;SDS011;62915;50.832;4.462;2024-01-07T03:01:07;19.00;;;14.15;;
23680;SDS011;62915;50.832;4.462;2024-01-07T03:03:34;20.60;;;14.73;;
23680;SDS011;62915;50.832;4.462;2024-01-07T03:06:00;21.73;;;15.05;;
23680;SDS011;62915;50.832;4.462;2024-01-07T03:08:26;19.67;;;14.30;;
23680;SDS011;62915;50.832;4.462;2024-01-07T03:10:53;21.10;;;15.23;;
23680;SDS011;62915;50.832;4.462;2024-01-07T03:13:20;21.30;;;15.80;;
23680;SDS011;62915;50.832;4.462;2024-01-07T03:15:46;21.70;;;16.08;;
23680;SDS011;62915;50.832;4.462;2024-01-07T03:18:12;21.60;;;16.02;;
23680;SDS011;62915;50.832;4.462;2024-01-07T03:20:38;27.48;;;17.35;;
23680;SDS011;62915;50.832;4.462;2024-01-07T03:23:04;25.33;;;17.65;;
23680;SDS011;62915;50.832;4.462;2024-01-07T03:25:30;25.83;;;17.80;;
23680;SDS011;62915;50.832;4.462;2024-01-07T03:27:55;23.77;;;17.02;;
23680;SDS011;62915;50.832;4.462;2024-01-07T03:30:21;27.08;;;17.95;;
23680;SDS011;62915;50.832;4.462;2024-01-07T03:32:47;24.45;;;17.65;;
23680;SDS011;62915;50.832;4.462;2024-01-07T03:35:12;25.48;;;17.77;;
23680;SDS011;62915;50.832;4.462;2024-01-07T03:37:38;26.65;;;17.98;;
23680;SDS011;62915;50.832;4.462;2024-01-07T03:40:09;29.67;;;18.83;;
23680;SDS011;62915;50.832;4.462;2024-01-07T03:42:38;26.67;;;18.25;;
23680;SDS011;62915;50.832;4.462;2024-01-07T03:45:05;32.83;;;20.88;;
23680;SDS011;62915;50.832;4.462;2024-01-07T03:47:34;27.92;;;19.88;;
23680;SDS011;62915;50.832;4.462;2024-01-07T03:50:02;32.70;;;20.52;;
23680;SDS011;62915;50.832;4.462;2024-01-07T03:52:29;33.67;;;21.98;;
23680;SDS011;62915;50.832;4.462;2024-01-07T03:54:55;33.45;;;22.65;;
23680;SDS011;62915;50.832;4.462;2024-01-07T03:57:20;34.65;;;22.33;;
23680;SDS011;62915;50.832;4.462;2024-01-07T03:59:46;36.45;;;24.13;;
23680;SDS011;62915;50.832;4.462;2024-01-07T04:02:12;33.05;;;22.65;;
23680;SDS011;62915;50.832;4.462;2024-01-07T04:04:41;40.95;;;26.83;;
23680;SDS011;62915;50.832;4.462;2024-01-07T04:07:07;42.05;;;27.70;;
23680;SDS011;62915;50.832;4.462;2024-01-07T04:09:33;40.40;;;27.38;;
23680;SDS011;62915;50.832;4.462;2024-01-07T04:11:59;43.75;;;28.65;;
23680;SDS011;62915;50.832;4.462;2024-01-07T04:14:24;41.45;;;27.38;;
23680;SDS011;62915;50.832;4.462;2024-01-07T04:16:52;38.42;;;26.70;;
23680;SDS011;62915;50.832;4.462;2024-01-07T04:19:18;42.85;;;27.55;;
23680;SDS011;62915;50.832;4.462;2024-01-07T04:21:47;40.22;;;26.85;;
23680;SDS011;62915;50.832;4.462;2024-01-07T04:24:13;47.75;;;30.55;;
23680;SDS011;62915;50.832;4.462;2024-01-07T04:26:39;44.22;;;28.48;;
23680;SDS011;62915;50.832;4.462;2024-01-07T04:29:04;44.92;;;28.33;;
23680;SDS011;62915;50.832;4.462;2024-01-07T04:31:31;41.97;;;27.52;;
23680;SDS011;62915;50.832;4.462;2024-01-07T04:33:57;44.55;;;29.00;;
23680;SDS011;62915;50.832;4.462;2024-01-07T04:36:22;44.33;;;27.92;;
23680;SDS011;62915;50.832;4.462;2024-01-07T04:38:48;44.47;;;26.38;;
23680;SDS011;62915;50.832;4.462;2024-01-07T04:41:14;40.83;;;26.75;;
23680;SDS011;62915;50.832;4.462;2024-01-07T04:43:42;44.85;;;26.17;;
23680;SDS011;62915;50.832;4.462;2024-01-07T04:46:08;37.60;;;24.27;;
23680;SDS011;62915;50.832;4.462;2024-01-07T04:48:35;36.58;;;23.70;;
23680;SDS011;62915;50.832;4.462;2024-01-07T04:51:02;36.20;;;23.02;;
23680;SDS011;62915;50.832;4.462;2024-01-07T04:53:28;37.45;;;22.70;;
23680;SDS011;62915;50.832;4.462;2024-01-07T04:55:53;36.55;;;22.30;;
23680;SDS011;62915;50.832;4.462;2024-01-07T04:58:19;38.45;;;22.75;;
23680;SDS011;62915;50.832;4.462;2024-01-07T05:00:45;36.25;;;21.80;;
23680;SDS011;62915;50.832;4.462;2024-01-07T05:03:11;36.08;;;22.33;;
23680;SDS011;62915;50.832;4.462;2024-01-07T05:05:36;35.28;;;21.75;;
23680;SDS011;62915;50.832;4.462;2024-01-07T05:08:03;38.35;;;23.98;;
23680;SDS011;62915;50.832;4.462;2024-01-07T05:10:29;36.97;;;22.05;;
23680;SDS011;62915;50.832;4.462;2024-01-07T05:12:55;38.88;;;24.27;;
23680;SDS011;62915;50.832;4.462;2024-01-07T05:15:21;35.78;;;22.20;;
23680;SDS011;62915;50.832;4.462;2024-01-07T05:17:47;39.03;;;24.05;;
23680;SDS011;62915;50.832;4.462;2024-01-07T05:20:14;39.08;;;23.83;;
23680;SDS011;62915;50.832;4.462;2024-01-07T05:22:41;37.70;;;24.08;;
23680;SDS011;62915;50.832;4.462;2024-01-07T05:25:07;40.13;;;23.85;;
23680;SDS011;62915;50.832;4.462;2024-01-07T05:27:33;38.60;;;24.67;;
23680;SDS011;62915;50.832;4.462;2024-01-07T05:29:58;40.17;;;24.52;;
23680;SDS011;62915;50.832;4.462;2024-01-07T05:32:24;37.72;;;23.23;;
23680;SDS011;62915;50.832;4.462;2024-01-07T05:34:50;38.90;;;23.88;;
23680;SDS011;62915;50.832;4.462;2024-01-07T05:37:16;38.55;;;24.10;;
23680;SDS011;62915;50.832;4.462;2024-01-07T05:39:41;36.63;;;23.17;;
23680;SDS011;62915;50.832;4.462;2024-01-07T05:42:07;35.35;;;23.30;;
23680;SDS011;62915;50.832;4.462;2024-01-07T05:44:33;38.45;;;24.63;;
23680;SDS011;62915;50.832;4.462;2024-01-07T05:47:00;41.03;;;25.98;;
23680;SDS011;62915;50.832;4.462;2024-01-07T05:49:26;38.10;;;24.23;;
23680;SDS011;62915;50.832;4.462;2024-01-07T05:51:52;38.90;;;24.63;;
23680;SDS011;62915;50.832;4.462;2024-01-07T05:54:18;37.90;;;25.48;;
23680;SDS011;62915;50.832;4.462;2024-01-07T05:56:44;39.05;;;25.33;;
23680;SDS011;62915;50.832;4.462;2024-01-07T05:59:10;40.95;;;26.33;;
23680;SDS011;62915;50.832;4.462;2024-01-07T06:01:37;45.25;;;26.60;;
23680;SDS011;62915;50.832;4.462;2024-01-07T06:04:03;40.35;;;25.90;;
23680;SDS011;62915;50.832;4.462;2024-01-07T06:06:29;42.13;;;26.42;;
23680;SDS011;62915;50.832;4.462;2024-01-07T06:08:55;42.25;;;26.67;;
23680;SDS011;62915;50.832;4.462;2024-01-07T06:11:20;42.45;;;25.35;;
23680;SDS011;62915;50.832;4.462;2024-01-07T06:13:46;40.67;;;25.17;;
23680;SDS011;62915;50.832;4.462;2024-01-07T06:16:13;44.60;;;26.30;;
23680;SDS011;62915;50.832;4.462;2024-01-07T06:18:39;43.22;;;26.33;;
23680;SDS011;62915;50.832;4.462;2024-01-07T06:21:05;44.63;;;27.67;;
23680;SDS011;62915;50.832;4.462;2024-01-07T06:23:32;44.42;;;27.17;;
23680;SDS011;62915;50.832;4.462;2024-01-07T06:25:58;43.05;;;25.95;;
23680;SDS011;62915;50.832;4.462;2024-01-07T06:28:24;43.25;;;25.73;;
23680;SDS011;62915;50.832;4.462;2024-01-07T06:30:51;42.92;;;25.90;;
23680;SDS011;62915;50.832;4.462;2024-01-07T06:33:18;43.13;;;25.10;;
23680;SDS011;62915;50.832;4.462;2024-01-07T06:35:45;47.72;;;26.70;;
23680;SDS011;62915;50.832;4.462;2024-01-07T06:38:11;44.88;;;26.50;;
23680;SDS011;62915;50.832;4.462;2024-01-07T06:40:38;44.30;;;26.10;;
23680;SDS011;62915;50.832;4.462;2024-01-07T06:43:04;43.38;;;26.25;;
23680;SDS011;62915;50.832;4.462;2024-01-07T06:45:31;48.95;;;26.52;;
23680;SDS011;62915;50.832;4.462;2024-01-07T06:47:57;43.85;;;25.35;;
23680;SDS011;62915;50.832;4.462;2024-01-07T06:50:23;44.95;;;26.80;;
23680;SDS011;62915;50.832;4.462;2024-01-07T06:52:49;44.03;;;25.88;;
23680;SDS011;62915;50.832;4.462;2024-01-07T06:55:15;46.15;;;24.48;;
23680;SDS011;62915;50.832;4.462;2024-01-07T06:57:41;45.33;;;24.83;;
23680;SDS011;62915;50.832;4.462;2024-01-07T07:00:07;47.33;;;26.05;;
23680;SDS011;62915;50.832;4.462;2024-01-07T07:02:33;45.22;;;24.02;;
23680;SDS011;62915;50.832;4.462;2024-01-07T07:05:00;53.47;;;26.98;;
23680;SDS011;62915;50.832;4.462;2024-01-07T07:07:25;45.08;;;25.33;;
23680;SDS011;62915;50.832;4.462;2024-01-07T07:09:51;53.90;;;26.35;;
23680;SDS011;62915;50.832;4.462;2024-01-07T07:12:17;44.92;;;25.70;;
23680;SDS011;62915;50.832;4.462;2024-01-07T07:14:43;51.72;;;26.25;;
23680;SDS011;62915;50.832;4.462;2024-01-07T07:17:09;50.17;;;25.88;;
23680;SDS011;62915;50.832;4.462;2024-01-07T07:19:35;52.92;;;27.60;;
23680;SDS011;62915;50.832;4.462;2024-01-07T07:22:00;55.95;;;27.63;;
23680;SDS011;62915;50.832;4.462;2024-01-07T07:24:26;54.90;;;26.40;;
23680;SDS011;62915;50.832;4.462;2024-01-07T07:26:52;49.60;;;26.67;;
23680;SDS011;62915;50.832;4.462;2024-01-07T07:29:18;54.80;;;26.98;;
23680;SDS011;62915;50.832;4.462;2024-01-07T07:31:43;58.88;;;28.33;;
23680;SDS011;62915;50.832;4.462;2024-01-07T07:34:09;52.78;;;27.08;;
23680;SDS011;62915;50.832;4.462;2024-01-07T07:36:35;59.05;;;29.40;;
23680;SDS011;62915;50.832;4.462;2024-01-07T07:39:01;51.88;;;28.75;;
23680;SDS011;62915;50.832;4.462;2024-01-07T07:41:27;53.20;;;28.92;;
23680;SDS011;62915;50.832;4.462;2024-01-07T07:43:53;56.05;;;29.33;;
23680;SDS011;62915;50.832;4.462;2024-01-07T07:46:19;51.97;;;28.77;;
23680;SDS011;62915;50.832;4.462;2024-01-07T07:48:45;52.05;;;28.27;;
23680;SDS011;62915;50.832;4.462;2024-01-07T07:51:11;52.90;;;29.17;;
23680;SDS011;62915;50.832;4.462;2024-01-07T07:53:40;53.03;;;29.10;;
23680;SDS011;62915;50.832;4.462;2024-01-07T07:56:06;56.40;;;29.65;;
23680;SDS011;62915;50.832;4.462;2024-01-07T07:58:32;53.92;;;29.58;;
23680;SDS011;62915;50.832;4.462;2024-01-07T08:00:58;57.35;;;30.77;;
23680;SDS011;62915;50.832;4.462;2024-01-07T08:03:23;52.22;;;28.90;;
23680;SDS011;62915;50.832;4.462;2024-01-07T08:05:49;58.10;;;29.60;;
23680;SDS011;62915;50.832;4.462;2024-01-07T08:08:15;58.40;;;29.50;;
23680;SDS011;62915;50.832;4.462;2024-01-07T08:10:44;56.03;;;29.80;;
23680;SDS011;62915;50.832;4.462;2024-01-07T08:13:10;53.65;;;29.48;;
23680;SDS011;62915;50.832;4.462;2024-01-07T08:15:36;53.95;;;28.58;;
23680;SDS011;62915;50.832;4.462;2024-01-07T08:18:04;46.88;;;26.85;;
23680;SDS011;62915;50.832;4.462;2024-01-07T08:20:33;58.50;;;29.08;;
23680;SDS011;62915;50.832;4.462;2024-01-07T08:23:02;55.80;;;29.38;;
23680;SDS011;62915;50.832;4.462;2024-01-07T08:25:31;53.58;;;29.15;;
23680;SDS011;62915;50.832;4.462;2024-01-07T08:28:00;55.40;;;30.52;;
23680;SDS011;62915;50.832;4.462;2024-01-07T08:30:29;57.67;;;28.80;;
23680;SDS011;62915;50.832;4.462;2024-01-07T08:32:58;53.25;;;29.65;;
23680;SDS011;62915;50.832;4.462;2024-01-07T08:35:29;49.80;;;27.95;;
23680;SDS011;62915;50.832;4.462;2024-01-07T08:37:58;52.75;;;29.08;;
23680;SDS011;62915;50.832;4.462;2024-01-07T08:40:28;55.05;;;28.48;;
23680;SDS011;62915;50.832;4.462;2024-01-07T08:42:58;49.55;;;27.67;;
23680;SDS011;62915;50.832;4.462;2024-01-07T08:45:29;51.00;;;28.30;;
23680;SDS011;62915;50.832;4.462;2024-01-07T08:47:57;50.70;;;28.25;;
23680;SDS011;62915;50.832;4.462;2024-01-07T08:52:59;43.90;;;24.20;;
23680;SDS011;62915;50.832;4.462;2024-01-07T08:55:28;41.50;;;24.42;;
23680;SDS011;62915;50.832;4.462;2024-01-07T08:57:57;45.13;;;23.60;;
23680;SDS011;62915;50.832;4.462;2024-01-07T09:00:25;34.25;;;21.90;;
23680;SDS011;62915;50.832;4.462;2024-01-07T09:02:56;31.05;;;20.55;;
23680;SDS011;62915;50.832;4.462;2024-01-07T09:05:22;31.13;;;21.20;;
23680;SDS011;62915;50.832;4.462;2024-01-07T09:07:52;36.33;;;21.08;;
23680;SDS011;62915;50.832;4.462;2024-01-07T09:10:19;35.35;;;22.00;;
23680;SDS011;62915;50.832;4.462;2024-01-07T09:12:46;35.58;;;22.48;;
23680;SDS011;62915;50.832;4.462;2024-01-07T09:15:12;34.58;;;21.52;;
23680;SDS011;62915;50.832;4.462;2024-01-07T09:17:38;33.90;;;22.02;;
23680;SDS011;62915;50.832;4.462;2024-01-07T09:20:05;38.55;;;23.63;;
23680;SDS011;62915;50.832;4.462;2024-01-07T09:22:34;38.90;;;24.20;;
23680;SDS011;62915;50.832;4.462;2024-01-07T09:25:05;45.22;;;26.58;;
23680;SDS011;62915;50.832;4.462;2024-01-07T09:27:33;44.97;;;26.90;;
23680;SDS011;62915;50.832;4.462;2024-01-07T09:29:59;45.63;;;27.88;;
23680;SDS011;62915;50.832;4.462;2024-01-07T09:32:26;40.45;;;26.13;;
23680;SDS011;62915;50.832;4.462;2024-01-07T09:34:52;45.85;;;26.85;;
23680;SDS011;62915;50.832;4.462;2024-01-07T09:37:18;42.38;;;26.20;;
23680;SDS011;62915;50.832;4.462;2024-01-07T09:39:44;39.45;;;24.95;;
23680;SDS011;62915;50.832;4.462;2024-01-07T09:42:15;40.53;;;25.27;;
23680;SDS011;62915;50.832;4.462;2024-01-07T09:44:44;40.55;;;24.85;;
23680;SDS011;62915;50.832;4.462;2024-01-07T09:47:14;35.08;;;21.30;;
23680;SDS011;62915;50.832;4.462;2024-01-07T09:49:43;32.63;;;21.20;;
23680;SDS011;62915;50.832;4.462;2024-01-07T09:52:13;36.15;;;23.30;;
23680;SDS011;62915;50.832;4.462;2024-01-07T09:54:42;33.58;;;22.42;;
23680;SDS011;62915;50.832;4.462;2024-01-07T09:57:11;38.97;;;22.27;;
23680;SDS011;62915;50.832;4.462;2024-01-07T09:59:37;34.00;;;22.92;;
23680;SDS011;62915;50.832;4.462;2024-01-07T10:02:04;39.03;;;23.95;;
23680;SDS011;62915;50.832;4.462;2024-01-07T10:04:31;37.72;;;24.52;;
23680;SDS011;62915;50.832;4.462;2024-01-07T10:06:59;36.90;;;23.42;;
23680;SDS011;62915;50.832;4.462;2024-01-07T10:09:30;40.80;;;23.85;;
23680;SDS011;62915;50.832;4.462;2024-01-07T10:12:02;34.67;;;23.65;;
23680;SDS011;62915;50.832;4.462;2024-01-07T10:14:31;37.80;;;24.27;;
23680;SDS011;62915;50.832;4.462;2024-01-07T10:17:00;37.00;;;23.88;;
23680;SDS011;62915;50.832;4.462;2024-01-07T10:19:29;38.53;;;25.48;;
23680;SDS011;62915;50.832;4.462;2024-01-07T10:22:01;38.90;;;24.98;;
23680;SDS011;62915;50.832;4.462;2024-01-07T10:24:38;37.50;;;24.85;;
23680;SDS011;62915;50.832;4.462;2024-01-07T10:27:08;38.10;;;24.00;;
23680;SDS011;62915;50.832;4.462;2024-01-07T10:29:38;39.20;;;24.83;;
23680;SDS011;62915;50.832;4.462;2024-01-07T10:32:05;40.05;;;25.58;;
23680;SDS011;62915;50.832;4.462;2024-01-07T10:34:33;40.55;;;25.83;;
23680;SDS011;62915;50.832;4.462;2024-01-07T10:37:01;41.50;;;26.13;;
23680;SDS011;62915;50.832;4.462;2024-01-07T10:39:29;39.20;;;25.80;;
23680;SDS011;62915;50.832;4.462;2024-01-07T10:41:57;40.53;;;26.58;;
23680;SDS011;62915;50.832;4.462;2024-01-07T10:44:26;40.38;;;26.05;;
23680;SDS011;62915;50.832;4.462;2024-01-07T10:46:55;38.72;;;25.35;;
23680;SDS011;62915;50.832;4.462;2024-01-07T10:49:23;41.47;;;27.05;;
23680;SDS011;62915;50.832;4.462;2024-01-07T10:54:31;40.83;;;26.67;;
23680;SDS011;62915;50.832;4.462;2024-01-07T10:57:00;37.95;;;25.95;;
23680;SDS011;62915;50.832;4.462;2024-01-07T10:59:50;35.28;;;24.25;;
23680;SDS011;62915;50.832;4.462;2024-01-07T11:02:19;39.58;;;25.27;;
23680;SDS011;62915;50.832;4.462;2024-01-07T11:04:50;35.13;;;22.85;;
23680;SDS011;62915;50.832;4.462;2024-01-07T11:07:53;34.25;;;21.80;;
23680;SDS011;62915;50.832;4.462;2024-01-07T11:10:25;33.90;;;21.98;;
23680;SDS011;62915;50.832;4.462;2024-01-07T11:13:29;34.90;;;23.15;;
23680;SDS011;62915;50.832;4.462;2024-01-07T11:16:05;33.47;;;21.80;;
23680;SDS011;62915;50.832;4.462;2024-01-07T11:21:23;38.78;;;24.55;;
23680;SDS011;62915;50.832;4.462;2024-01-07T11:23:51;32.13;;;21.88;;
23680;SDS011;62915;50.832;4.462;2024-01-07T11:26:19;30.20;;;20.52;;
23680;SDS011;62915;50.832;4.462;2024-01-07T11:28:52;31.23;;;21.00;;
23680;SDS011;62915;50.832;4.462;2024-01-07T11:31:25;31.40;;;21.00;;
23680;SDS011;62915;50.832;4.462;2024-01-07T11:34:07;34.40;;;19.83;;
23680;SDS011;62915;50.832;4.462;2024-01-07T11:36:38;33.17;;;20.08;;
23680;SDS011;62915;50.832;4.462;2024-01-07T11:39:05;32.58;;;20.25;;
23680;SDS011;62915;50.832;4.462;2024-01-07T11:41:34;33.38;;;20.30;;
23680;SDS011;62915;50.832;4.462;2024-01-07T11:44:02;35.38;;;21.25;;
23680;SDS011;62915;50.832;4.462;2024-01-07T11:46:30;32.10;;;21.02;;
23680;SDS011;62915;50.832;4.462;2024-01-07T11:49:00;34.30;;;20.67;;
23680;SDS011;62915;50.832;4.462;2024-01-07T11:51:31;33.45;;;20.33;;
23680;SDS011;62915;50.832;4.462;2024-01-07T11:54:00;35.92;;;20.15;;
23680;SDS011;62915;50.832;4.462;2024-01-07T11:56:27;33.22;;;20.60;;
23680;SDS011;62915;50.832;4.462;2024-01-07T11:58:53;30.50;;;19.48;;
23680;SDS011;62915;50.832;4.462;2024-01-07T12:01:21;29.35;;;18.70;;
23680;SDS011;62915;50.832;4.462;2024-01-07T12:03:47;31.85;;;19.20;;
23680;SDS011;62915;50.832;4.462;2024-01-07T12:06:13;32.67;;;20.05;;
23680;SDS011;62915;50.832;4.462;2024-01-07T12:08:41;29.40;;;18.63;;
23680;SDS011;62915;50.832;4.462;2024-01-07T12:11:08;30.83;;;19.98;;
23680;SDS011;62915;50.832;4.462;2024-01-07T12:13:36;33.00;;;18.90;;
23680;SDS011;62915;50.832;4.462;2024-01-07T12:16:03;30.60;;;18.85;;
23680;SDS011;62915;50.832;4.462;2024-01-07T12:18:33;31.40;;;19.15;;
23680;SDS011;62915;50.832;4.462;2024-01-07T12:21:01;30.88;;;18.75;;
23680;SDS011;62915;50.832;4.462;2024-01-07T12:23:28;27.95;;;18.25;;
23680;SDS011;62915;50.832;4.462;2024-01-07T12:26:06;32.35;;;19.83;;
23680;SDS011;62915;50.832;4.462;2024-01-07T12:28:36;30.88;;;19.25;;
23680;SDS011;62915;50.832;4.462;2024-01-07T12:31:05;30.33;;;20.02;;
23680;SDS011;62915;50.832;4.462;2024-01-07T12:33:37;33.50;;;19.20;;
23680;SDS011;62915;50.832;4.462;2024-01-07T12:36:06;33.58;;;19.50;;
23680;SDS011;62915;50.832;4.462;2024-01-07T12:38:38;29.15;;;19.52;;
23680;SDS011;62915;50.832;4.462;2024-01-07T12:41:08;32.40;;;19.40;;
23680;SDS011;62915;50.832;4.462;2024-01-07T12:43:37;30.90;;;19.92;;
23680;SDS011;62915;50.832;4.462;2024-01-07T12:46:07;34.63;;;19.25;;
23680;SDS011;62915;50.832;4.462;2024-01-07T12:48:35;28.55;;;18.33;;
23680;SDS011;62915;50.832;4.462;2024-01-07T12:51:01;28.60;;;18.27;;
23680;SDS011;62915;50.832;4.462;2024-01-07T12:53:29;27.90;;;17.55;;
23680;SDS011;62915;50.832;4.462;2024-01-07T12:55:57;26.15;;;17.58;;
23680;SDS011;62915;50.832;4.462;2024-01-07T12:58:25;25.35;;;16.95;;
23680;SDS011;62915;50.832;4.462;2024-01-07T13:00:52;24.27;;;17.30;;
23680;SDS011;62915;50.832;4.462;2024-01-07T13:03:18;26.60;;;17.05;;
23680;SDS011;62915;50.832;4.462;2024-01-07T13:05:44;27.10;;;17.55;;
23680;SDS011;62915;50.832;4.462;2024-01-07T13:08:11;24.73;;;17.13;;
23680;SDS011;62915;50.832;4.462;2024-01-07T13:10:40;27.48;;;17.13;;
23680;SDS011;62915;50.832;4.462;2024-01-07T13:13:09;24.60;;;16.17;;
23680;SDS011;62915;50.832;4.462;2024-01-07T13:15:38;24.65;;;16.88;;
23680;SDS011;62915;50.832;4.462;2024-01-07T13:18:06;23.83;;;17.55;;
23680;SDS011;62915;50.832;4.462;2024-01-07T13:20:33;25.20;;;16.58;;
23680;SDS011;62915;50.832;4.462;2024-01-07T13:23:05;24.98;;;17.17;;
23680;SDS011;62915;50.832;4.462;2024-01-07T13:25:33;24.42;;;16.52;;
23680;SDS011;62915;50.832;4.462;2024-01-07T13:28:01;24.38;;;17.42;;
23680;SDS011;62915;50.832;4.462;2024-01-07T13:30:27;24.30;;;16.65;;
23680;SDS011;62915;50.832;4.462;2024-01-07T13:32:53;25.58;;;16.77;;
23680;SDS011;62915;50.832;4.462;2024-01-07T13:35:22;24.30;;;16.13;;
23680;SDS011;62915;50.832;4.462;2024-01-07T13:37:47;25.10;;;17.63;;
23680;SDS011;62915;50.832;4.462;2024-01-07T13:40:13;21.00;;;16.25;;
23680;SDS011;62915;50.832;4.462;2024-01-07T13:42:40;24.42;;;16.88;;
23680;SDS011;62915;50.832;4.462;2024-01-07T13:45:06;23.58;;;16.70;;
23680;SDS011;62915;50.832;4.462;2024-01-07T13:47:32;22.50;;;16.23;;
23680;SDS011;62915;50.832;4.462;2024-01-07T13:50:00;23.35;;;17.42;;
23680;SDS011;62915;50.832;4.462;2024-01-07T13:52:28;23.02;;;16.27;;
23680;SDS011;62915;50.832;4.462;2024-01-07T13:54:56;21.95;;;16.55;;
23680;SDS011;62915;50.832;4.462;2024-01-07T13:57:25;22.15;;;16.30;;
23680;SDS011;62915;50.832;4.462;2024-01-07T13:59:53;23.40;;;17.02;;
23680;SDS011;62915;50.832;4.462;2024-01-07T14:02:19;24.15;;;17.55;;
23680;SDS011;62915;50.832;4.462;2024-01-07T14:04:48;23.38;;;16.38;;
23680;SDS011;62915;50.832;4.462;2024-01-07T14:07:16;20.98;;;15.90;;
23680;SDS011;62915;50.832;4.462;2024-01-07T14:09:43;19.30;;;15.60;;
23680;SDS011;62915;50.832;4.462;2024-01-07T14:12:11;22.02;;;15.98;;
23680;SDS011;62915;50.832;4.462;2024-01-07T14:14:40;20.75;;;16.45;;
23680;SDS011;62915;50.832;4.462;2024-01-07T14:17:08;22.25;;;17.00;;
23680;SDS011;62915;50.832;4.462;2024-01-07T14:19:37;23.10;;;16.23;;
23680;SDS011;62915;50.832;4.462;2024-01-07T14:22:03;20.73;;;16.02;;
23680;SDS011;62915;50.832;4.462;2024-01-07T14:24:30;21.33;;;16.55;;
23680;SDS011;62915;50.832;4.462;2024-01-07T14:26:57;22.52;;;17.38;;
23680;SDS011;62915;50.832;4.462;2024-01-07T14:29:26;22.63;;;18.08;;